sensor_id;sensor_type;location;lat;lon;timestamp;P1;durP1;ratioP1;P2;durP2;ratioP2
61250;SDS011;47126;47.508;8.590;2022-11-11T00:00:26;172.95;;;23.20;;
61250;SDS011;47126;47.508;8.590;2022-11-11T00:02:55;262.10;;;26.50;;
61250;SDS011;47126;47.508;8.590;2022-11-11T00:05:21;314.80;;;29.10;;
61250;SDS011;47126;47.508;8.590;2022-11-11T00:07:47;288.33;;;28.23;;
61250;SDS011;47126;47.508;8.590;2022-11-11T00:10:14;234.27;;;28.27;;
61250;SDS011;47126;47.508;8.590;2022-11-11T00:12:40;201.82;;;23.27;;
61250;SDS011;47126;47.508;8.590;2022-11-11T00:15:06;86.20;;;25.23;;
61250;SDS011;47126;47.508;8.590;2022-11-11T00:17:32;145.57;;;27.05;;
61250;SDS011;47126;47.508;8.590;2022-11-11T00:20:17;108.15;;;23.25;;
61250;SDS011;47126;47.508;8.590;2022-11-11T00:23:02;129.90;;;26.40;;
61250;SDS011;47126;47.508;8.590;2022-11-11T00:25:50;165.98;;;23.60;;
61250;SDS011;47126;47.508;8.590;2022-11-11T00:28:17;111.60;;;21.23;;
61250;SDS011;47126;47.508;8.590;2022-11-11T00:30:43;141.90;;;23.15;;
61250;SDS011;47126;47.508;8.590;2022-11-11T00:33:09;124.90;;;19.95;;
61250;SDS011;47126;47.508;8.590;2022-11-11T00:35:35;195.88;;;22.10;;
61250;SDS011;47126;47.508;8.590;2022-11-11T00:38:19;152.55;;;23.35;;
61250;SDS011;47126;47.508;8.590;2022-11-11T00:41:04;157.05;;;22.20;;
61250;SDS011;47126;47.508;8.590;2022-11-11T00:43:30;190.32;;;27.23;;
61250;SDS011;47126;47.508;8.590;2022-11-11T00:45:56;233.25;;;25.02;;
61250;SDS011;47126;47.508;8.590;2022-11-11T00:48:42;159.10;;;22.63;;
61250;SDS011;47126;47.508;8.590;2022-11-11T00:51:27;96.90;;;18.13;;
61250;SDS011;47126;47.508;8.590;2022-11-11T00:53:53;95.80;;;18.88;;
61250;SDS011;47126;47.508;8.590;2022-11-11T00:56:20;58.97;;;17.33;;
61250;SDS011;47126;47.508;8.590;2022-11-11T00:58:46;46.25;;;18.38;;
61250;SDS011;47126;47.508;8.590;2022-11-11T01:01:12;37.75;;;18.58;;
61250;SDS011;47126;47.508;8.590;2022-11-11T01:03:38;38.70;;;19.50;;
61250;SDS011;47126;47.508;8.590;2022-11-11T01:06:04;35.25;;;18.70;;
61250;SDS011;47126;47.508;8.590;2022-11-11T01:08:30;32.80;;;17.80;;
61250;SDS011;47126;47.508;8.590;2022-11-11T01:10:56;35.22;;;19.50;;
61250;SDS011;47126;47.508;8.590;2022-11-11T01:13:23;31.70;;;18.27;;
61250;SDS011;47126;47.508;8.590;2022-11-11T01:15:50;34.10;;;17.75;;
61250;SDS011;47126;47.508;8.590;2022-11-11T01:18:18;34.63;;;18.65;;
61250;SDS011;47126;47.508;8.590;2022-11-11T01:20:44;37.90;;;19.85;;
61250;SDS011;47126;47.508;8.590;2022-11-11T01:23:11;36.55;;;21.73;;
61250;SDS011;47126;47.508;8.590;2022-11-11T01:25:38;28.25;;;16.38;;
61250;SDS011;47126;47.508;8.590;2022-11-11T01:28:04;31.58;;;20.88;;
61250;SDS011;47126;47.508;8.590;2022-11-11T01:30:32;27.40;;;16.85;;
61250;SDS011;47126;47.508;8.590;2022-11-11T01:32:58;25.17;;;15.10;;
61250;SDS011;47126;47.508;8.590;2022-11-11T01:35:24;25.88;;;15.07;;
61250;SDS011;47126;47.508;8.590;2022-11-11T01:37:50;30.95;;;15.27;;
61250;SDS011;47126;47.508;8.590;2022-11-11T01:40:16;24.35;;;15.32;;
61250;SDS011;47126;47.508;8.590;2022-11-11T01:42:46;23.25;;;14.75;;
61250;SDS011;47126;47.508;8.590;2022-11-11T01:47:57;26.10;;;15.52;;
61250;SDS011;47126;47.508;8.590;2022-11-11T01:50:42;24.85;;;16.45;;
61250;SDS011;47126;47.508;8.590;2022-11-11T01:53:08;28.40;;;16.30;;
61250;SDS011;47126;47.508;8.590;2022-11-11T01:55:34;25.40;;;15.73;;
61250;SDS011;47126;47.508;8.590;2022-11-11T01:58:02;25.42;;;14.57;;
61250;SDS011;47126;47.508;8.590;2022-11-11T02:00:29;26.13;;;15.07;;
61250;SDS011;47126;47.508;8.590;2022-11-11T02:03:00;22.85;;;13.80;;
61250;SDS011;47126;47.508;8.590;2022-11-11T02:05:28;24.63;;;13.75;;
61250;SDS011;47126;47.508;8.590;2022-11-11T02:08:11;23.60;;;13.98;;
61250;SDS011;47126;47.508;8.590;2022-11-11T02:10:39;26.98;;;14.52;;
61250;SDS011;47126;47.508;8.590;2022-11-11T02:13:13;27.92;;;14.52;;
61250;SDS011;47126;47.508;8.590;2022-11-11T02:15:58;29.88;;;13.63;;
61250;SDS011;47126;47.508;8.590;2022-11-11T02:18:25;30.95;;;15.13;;
61250;SDS011;47126;47.508;8.590;2022-11-11T02:20:51;33.40;;;15.57;;
61250;SDS011;47126;47.508;8.590;2022-11-11T02:23:21;52.78;;;16.00;;
61250;SDS011;47126;47.508;8.590;2022-11-11T02:25:48;45.53;;;16.13;;
61250;SDS011;47126;47.508;8.590;2022-11-11T02:28:15;34.08;;;14.95;;
61250;SDS011;47126;47.508;8.590;2022-11-11T02:30:42;37.33;;;14.75;;
61250;SDS011;47126;47.508;8.590;2022-11-11T02:33:08;24.17;;;13.32;;
61250;SDS011;47126;47.508;8.590;2022-11-11T02:35:35;27.55;;;14.27;;
61250;SDS011;47126;47.508;8.590;2022-11-11T02:38:03;28.60;;;13.52;;
61250;SDS011;47126;47.508;8.590;2022-11-11T02:40:33;23.23;;;13.18;;
61250;SDS011;47126;47.508;8.590;2022-11-11T02:43:00;26.60;;;14.43;;
61250;SDS011;47126;47.508;8.590;2022-11-11T02:45:26;23.70;;;13.23;;
61250;SDS011;47126;47.508;8.590;2022-11-11T02:47:52;28.23;;;13.55;;
61250;SDS011;47126;47.508;8.590;2022-11-11T02:50:18;25.27;;;13.00;;
61250;SDS011;47126;47.508;8.590;2022-11-11T02:52:44;26.95;;;14.02;;
61250;SDS011;47126;47.508;8.590;2022-11-11T02:55:10;28.70;;;13.95;;
61250;SDS011;47126;47.508;8.590;2022-11-11T02:57:36;26.77;;;13.57;;
61250;SDS011;47126;47.508;8.590;2022-11-11T03:00:02;29.40;;;15.88;;
61250;SDS011;47126;47.508;8.590;2022-11-11T03:02:29;25.80;;;14.75;;
61250;SDS011;47126;47.508;8.590;2022-11-11T03:04:55;29.40;;;15.15;;
61250;SDS011;47126;47.508;8.590;2022-11-11T03:07:22;30.48;;;15.93;;
61250;SDS011;47126;47.508;8.590;2022-11-11T03:09:48;27.15;;;15.52;;
61250;SDS011;47126;47.508;8.590;2022-11-11T03:12:15;28.67;;;15.93;;
61250;SDS011;47126;47.508;8.590;2022-11-11T03:14:41;26.85;;;15.13;;
61250;SDS011;47126;47.508;8.590;2022-11-11T03:17:07;26.20;;;16.25;;
61250;SDS011;47126;47.508;8.590;2022-11-11T03:19:52;25.75;;;14.52;;
61250;SDS011;47126;47.508;8.590;2022-11-11T03:22:38;28.45;;;15.90;;
61250;SDS011;47126;47.508;8.590;2022-11-11T03:25:04;36.00;;;18.85;;
61250;SDS011;47126;47.508;8.590;2022-11-11T03:27:49;36.13;;;22.58;;
61250;SDS011;47126;47.508;8.590;2022-11-11T03:30:15;34.35;;;18.27;;
61250;SDS011;47126;47.508;8.590;2022-11-11T03:32:42;33.05;;;17.20;;
61250;SDS011;47126;47.508;8.590;2022-11-11T03:35:08;32.25;;;15.88;;
61250;SDS011;47126;47.508;8.590;2022-11-11T03:37:34;30.38;;;17.80;;
61250;SDS011;47126;47.508;8.590;2022-11-11T03:40:24;34.90;;;18.33;;
61250;SDS011;47126;47.508;8.590;2022-11-11T03:42:50;32.85;;;19.23;;
61250;SDS011;47126;47.508;8.590;2022-11-11T03:45:15;37.75;;;23.13;;
61250;SDS011;47126;47.508;8.590;2022-11-11T03:47:41;40.10;;;18.70;;
61250;SDS011;47126;47.508;8.590;2022-11-11T03:50:07;39.15;;;18.45;;
61250;SDS011;47126;47.508;8.590;2022-11-11T03:52:33;37.78;;;20.15;;
61250;SDS011;47126;47.508;8.590;2022-11-11T03:54:59;36.90;;;18.70;;
61250;SDS011;47126;47.508;8.590;2022-11-11T03:57:25;41.17;;;21.77;;
61250;SDS011;47126;47.508;8.590;2022-11-11T03:59:54;47.13;;;22.00;;
61250;SDS011;47126;47.508;8.590;2022-11-11T04:02:20;29.33;;;14.85;;
61250;SDS011;47126;47.508;8.590;2022-11-11T04:05:05;20.08;;;11.82;;
61250;SDS011;47126;47.508;8.590;2022-11-11T04:07:50;18.17;;;11.13;;
61250;SDS011;47126;47.508;8.590;2022-11-11T04:10:35;22.50;;;11.50;;
61250;SDS011;47126;47.508;8.590;2022-11-11T04:13:01;21.08;;;11.20;;
61250;SDS011;47126;47.508;8.590;2022-11-11T04:15:46;24.42;;;10.88;;
61250;SDS011;47126;47.508;8.590;2022-11-11T04:18:30;22.23;;;11.73;;
61250;SDS011;47126;47.508;8.590;2022-11-11T04:21:15;27.55;;;13.57;;
61250;SDS011;47126;47.508;8.590;2022-11-11T04:24:01;21.92;;;12.82;;
61250;SDS011;47126;47.508;8.590;2022-11-11T04:26:27;25.95;;;13.30;;
61250;SDS011;47126;47.508;8.590;2022-11-11T04:28:52;30.77;;;13.68;;
61250;SDS011;47126;47.508;8.590;2022-11-11T04:31:37;27.85;;;15.20;;
61250;SDS011;47126;47.508;8.590;2022-11-11T04:34:23;31.50;;;15.98;;
61250;SDS011;47126;47.508;8.590;2022-11-11T04:36:49;30.17;;;17.15;;
61250;SDS011;47126;47.508;8.590;2022-11-11T04:39:15;32.90;;;17.83;;
61250;SDS011;47126;47.508;8.590;2022-11-11T04:42:00;35.20;;;18.52;;
61250;SDS011;47126;47.508;8.590;2022-11-11T04:44:26;37.10;;;19.17;;
61250;SDS011;47126;47.508;8.590;2022-11-11T04:47:10;33.58;;;19.75;;
61250;SDS011;47126;47.508;8.590;2022-11-11T04:49:36;37.15;;;20.35;;
61250;SDS011;47126;47.508;8.590;2022-11-11T04:52:02;40.53;;;21.60;;
61250;SDS011;47126;47.508;8.590;2022-11-11T04:54:47;37.22;;;21.13;;
61250;SDS011;47126;47.508;8.590;2022-11-11T04:57:31;38.65;;;21.35;;
61250;SDS011;47126;47.508;8.590;2022-11-11T04:59:57;51.97;;;23.70;;
61250;SDS011;47126;47.508;8.590;2022-11-11T05:02:25;57.70;;;23.23;;
61250;SDS011;47126;47.508;8.590;2022-11-11T05:05:10;45.58;;;22.80;;
61250;SDS011;47126;47.508;8.590;2022-11-11T05:07:36;46.75;;;22.88;;
61250;SDS011;47126;47.508;8.590;2022-11-11T05:10:20;39.85;;;20.98;;
61250;SDS011;47126;47.508;8.590;2022-11-11T05:12:46;40.67;;;21.63;;
61250;SDS011;47126;47.508;8.590;2022-11-11T05:15:12;44.38;;;22.35;;
61250;SDS011;47126;47.508;8.590;2022-11-11T05:17:57;45.53;;;20.10;;
61250;SDS011;47126;47.508;8.590;2022-11-11T05:20:41;46.17;;;19.92;;
61250;SDS011;47126;47.508;8.590;2022-11-11T05:23:26;49.78;;;19.67;;
61250;SDS011;47126;47.508;8.590;2022-11-11T05:26:12;47.50;;;18.80;;
61250;SDS011;47126;47.508;8.590;2022-11-11T05:28:38;57.58;;;24.15;;
61250;SDS011;47126;47.508;8.590;2022-11-11T05:31:04;51.35;;;22.90;;
61250;SDS011;47126;47.508;8.590;2022-11-11T05:33:30;55.92;;;23.48;;
61250;SDS011;47126;47.508;8.590;2022-11-11T05:35:56;49.20;;;22.27;;
61250;SDS011;47126;47.508;8.590;2022-11-11T05:38:22;55.65;;;23.42;;
61250;SDS011;47126;47.508;8.590;2022-11-11T05:40:49;59.55;;;23.50;;
61250;SDS011;47126;47.508;8.590;2022-11-11T05:43:15;59.72;;;23.73;;
61250;SDS011;47126;47.508;8.590;2022-11-11T05:45:41;47.35;;;21.42;;
61250;SDS011;47126;47.508;8.590;2022-11-11T05:48:07;51.70;;;21.95;;
61250;SDS011;47126;47.508;8.590;2022-11-11T05:50:33;47.08;;;20.40;;
61250;SDS011;47126;47.508;8.590;2022-11-11T05:53:01;45.83;;;20.00;;
61250;SDS011;47126;47.508;8.590;2022-11-11T05:55:27;40.25;;;19.95;;
61250;SDS011;47126;47.508;8.590;2022-11-11T05:57:53;47.47;;;21.60;;
61250;SDS011;47126;47.508;8.590;2022-11-11T06:00:19;46.50;;;21.25;;
61250;SDS011;47126;47.508;8.590;2022-11-11T06:02:45;42.10;;;20.13;;
61250;SDS011;47126;47.508;8.590;2022-11-11T06:05:11;50.55;;;21.60;;
61250;SDS011;47126;47.508;8.590;2022-11-11T06:07:38;51.85;;;21.48;;
61250;SDS011;47126;47.508;8.590;2022-11-11T06:10:07;43.13;;;20.38;;
61250;SDS011;47126;47.508;8.590;2022-11-11T06:12:52;42.15;;;20.60;;
61250;SDS011;47126;47.508;8.590;2022-11-11T06:15:33;45.70;;;22.38;;
61250;SDS011;47126;47.508;8.590;2022-11-11T06:18:00;43.58;;;21.55;;
61250;SDS011;47126;47.508;8.590;2022-11-11T06:20:26;52.20;;;22.30;;
61250;SDS011;47126;47.508;8.590;2022-11-11T06:22:52;49.78;;;21.88;;
61250;SDS011;47126;47.508;8.590;2022-11-11T06:25:30;39.97;;;19.42;;
61250;SDS011;47126;47.508;8.590;2022-11-11T06:28:16;41.28;;;19.02;;
61250;SDS011;47126;47.508;8.590;2022-11-11T06:30:42;40.63;;;17.52;;
61250;SDS011;47126;47.508;8.590;2022-11-11T06:33:10;33.22;;;17.67;;
61250;SDS011;47126;47.508;8.590;2022-11-11T06:35:36;39.38;;;17.38;;
61250;SDS011;47126;47.508;8.590;2022-11-11T06:38:03;36.45;;;18.13;;
61250;SDS011;47126;47.508;8.590;2022-11-11T06:40:29;34.38;;;17.35;;
61250;SDS011;47126;47.508;8.590;2022-11-11T06:42:58;32.47;;;17.15;;
61250;SDS011;47126;47.508;8.590;2022-11-11T06:45:26;30.70;;;15.65;;
61250;SDS011;47126;47.508;8.590;2022-11-11T06:47:52;34.72;;;16.25;;
61250;SDS011;47126;47.508;8.590;2022-11-11T06:50:19;30.10;;;15.35;;
61250;SDS011;47126;47.508;8.590;2022-11-11T06:52:45;28.63;;;14.63;;
61250;SDS011;47126;47.508;8.590;2022-11-11T06:55:11;27.45;;;14.43;;
61250;SDS011;47126;47.508;8.590;2022-11-11T06:57:38;29.00;;;14.00;;
61250;SDS011;47126;47.508;8.590;2022-11-11T07:00:04;30.25;;;14.25;;
61250;SDS011;47126;47.508;8.590;2022-11-11T07:02:31;27.33;;;13.73;;
61250;SDS011;47126;47.508;8.590;2022-11-11T07:04:57;27.67;;;12.73;;
61250;SDS011;47126;47.508;8.590;2022-11-11T07:07:23;28.00;;;13.30;;
61250;SDS011;47126;47.508;8.590;2022-11-11T07:09:49;28.15;;;13.15;;
61250;SDS011;47126;47.508;8.590;2022-11-11T07:12:15;25.00;;;12.57;;
61250;SDS011;47126;47.508;8.590;2022-11-11T07:14:41;21.30;;;11.27;;
61250;SDS011;47126;47.508;8.590;2022-11-11T07:17:07;25.50;;;12.93;;
61250;SDS011;47126;47.508;8.590;2022-11-11T07:19:33;23.08;;;12.75;;
61250;SDS011;47126;47.508;8.590;2022-11-11T07:21:59;28.90;;;12.93;;
61250;SDS011;47126;47.508;8.590;2022-11-11T07:24:25;20.33;;;11.35;;
61250;SDS011;47126;47.508;8.590;2022-11-11T07:26:51;26.15;;;12.05;;
61250;SDS011;47126;47.508;8.590;2022-11-11T07:29:17;23.10;;;12.80;;
61250;SDS011;47126;47.508;8.590;2022-11-11T07:31:43;23.45;;;12.48;;
61250;SDS011;47126;47.508;8.590;2022-11-11T07:34:09;22.48;;;12.35;;
61250;SDS011;47126;47.508;8.590;2022-11-11T07:36:36;23.77;;;12.25;;
61250;SDS011;47126;47.508;8.590;2022-11-11T07:39:02;23.65;;;12.20;;
61250;SDS011;47126;47.508;8.590;2022-11-11T07:41:28;27.08;;;13.30;;
61250;SDS011;47126;47.508;8.590;2022-11-11T07:43:53;19.98;;;11.10;;
61250;SDS011;47126;47.508;8.590;2022-11-11T07:46:19;25.75;;;11.98;;
61250;SDS011;47126;47.508;8.590;2022-11-11T07:48:45;21.20;;;11.30;;
61250;SDS011;47126;47.508;8.590;2022-11-11T07:51:11;25.20;;;12.82;;
61250;SDS011;47126;47.508;8.590;2022-11-11T07:53:37;23.67;;;12.13;;
61250;SDS011;47126;47.508;8.590;2022-11-11T07:56:04;23.52;;;12.90;;
61250;SDS011;47126;47.508;8.590;2022-11-11T07:58:31;21.67;;;12.70;;
61250;SDS011;47126;47.508;8.590;2022-11-11T08:01:00;25.13;;;13.07;;
61250;SDS011;47126;47.508;8.590;2022-11-11T08:03:26;23.02;;;12.45;;
61250;SDS011;47126;47.508;8.590;2022-11-11T08:05:53;22.52;;;12.07;;
61250;SDS011;47126;47.508;8.590;2022-11-11T08:08:23;26.95;;;13.00;;
61250;SDS011;47126;47.508;8.590;2022-11-11T08:10:54;25.55;;;13.15;;
61250;SDS011;47126;47.508;8.590;2022-11-11T08:13:20;24.30;;;14.55;;
61250;SDS011;47126;47.508;8.590;2022-11-11T08:16:05;23.48;;;13.65;;
61250;SDS011;47126;47.508;8.590;2022-11-11T08:18:32;24.92;;;12.25;;
61250;SDS011;47126;47.508;8.590;2022-11-11T08:20:58;24.65;;;12.90;;
61250;SDS011;47126;47.508;8.590;2022-11-11T08:23:24;30.00;;;13.82;;
61250;SDS011;47126;47.508;8.590;2022-11-11T08:25:57;25.73;;;12.15;;
61250;SDS011;47126;47.508;8.590;2022-11-11T08:28:23;25.65;;;12.38;;
61250;SDS011;47126;47.508;8.590;2022-11-11T08:30:50;24.65;;;11.98;;
61250;SDS011;47126;47.508;8.590;2022-11-11T08:33:16;24.90;;;12.77;;
61250;SDS011;47126;47.508;8.590;2022-11-11T08:35:42;25.67;;;13.77;;
61250;SDS011;47126;47.508;8.590;2022-11-11T08:38:08;26.17;;;12.52;;
61250;SDS011;47126;47.508;8.590;2022-11-11T08:40:34;23.17;;;12.52;;
61250;SDS011;47126;47.508;8.590;2022-11-11T08:43:00;24.23;;;12.32;;
61250;SDS011;47126;47.508;8.590;2022-11-11T08:45:26;28.55;;;13.32;;
61250;SDS011;47126;47.508;8.590;2022-11-11T08:47:52;21.65;;;11.60;;
61250;SDS011;47126;47.508;8.590;2022-11-11T08:50:21;25.60;;;13.02;;
61250;SDS011;47126;47.508;8.590;2022-11-11T08:52:50;22.52;;;12.55;;
61250;SDS011;47126;47.508;8.590;2022-11-11T08:55:17;25.17;;;11.98;;
61250;SDS011;47126;47.508;8.590;2022-11-11T08:57:43;23.00;;;12.30;;
61250;SDS011;47126;47.508;8.590;2022-11-11T09:00:10;24.48;;;13.05;;
61250;SDS011;47126;47.508;8.590;2022-11-11T09:02:36;22.35;;;13.38;;
61250;SDS011;47126;47.508;8.590;2022-11-11T09:05:02;24.60;;;13.55;;
61250;SDS011;47126;47.508;8.590;2022-11-11T09:07:29;28.02;;;14.18;;
61250;SDS011;47126;47.508;8.590;2022-11-11T09:09:55;26.75;;;14.77;;
61250;SDS011;47126;47.508;8.590;2022-11-11T09:12:21;25.33;;;13.38;;
61250;SDS011;47126;47.508;8.590;2022-11-11T09:14:50;26.35;;;13.93;;
61250;SDS011;47126;47.508;8.590;2022-11-11T09:17:16;23.98;;;13.70;;
61250;SDS011;47126;47.508;8.590;2022-11-11T09:19:42;23.35;;;13.52;;
61250;SDS011;47126;47.508;8.590;2022-11-11T09:22:11;23.75;;;13.55;;
61250;SDS011;47126;47.508;8.590;2022-11-11T09:24:37;24.70;;;14.35;;
61250;SDS011;47126;47.508;8.590;2022-11-11T09:27:03;27.67;;;14.48;;
61250;SDS011;47126;47.508;8.590;2022-11-11T09:29:29;27.60;;;13.20;;
61250;SDS011;47126;47.508;8.590;2022-11-11T09:31:55;30.02;;;14.13;;
61250;SDS011;47126;47.508;8.590;2022-11-11T09:34:21;25.75;;;13.23;;
61250;SDS011;47126;47.508;8.590;2022-11-11T09:36:47;23.63;;;12.82;;
61250;SDS011;47126;47.508;8.590;2022-11-11T09:39:14;26.75;;;14.25;;
61250;SDS011;47126;47.508;8.590;2022-11-11T09:42:02;25.13;;;14.18;;
61250;SDS011;47126;47.508;8.590;2022-11-11T09:47:20;24.92;;;12.77;;
61250;SDS011;47126;47.508;8.590;2022-11-11T09:52:37;30.73;;;14.52;;
61250;SDS011;47126;47.508;8.590;2022-11-11T09:55:17;25.17;;;13.15;;
61250;SDS011;47126;47.508;8.590;2022-11-11T10:00:20;27.27;;;15.45;;
61250;SDS011;47126;47.508;8.590;2022-11-11T10:05:47;25.02;;;13.55;;
61250;SDS011;47126;47.508;8.590;2022-11-11T10:08:15;22.85;;;13.25;;
61250;SDS011;47126;47.508;8.590;2022-11-11T10:10:43;31.08;;;17.00;;
61250;SDS011;47126;47.508;8.590;2022-11-11T10:13:14;27.60;;;15.02;;
61250;SDS011;47126;47.508;8.590;2022-11-11T10:15:44;28.77;;;16.05;;
61250;SDS011;47126;47.508;8.590;2022-11-11T10:20:41;25.77;;;14.32;;
61250;SDS011;47126;47.508;8.590;2022-11-11T10:25:33;31.05;;;15.05;;
61250;SDS011;47126;47.508;8.590;2022-11-11T10:28:00;25.55;;;13.80;;
61250;SDS011;47126;47.508;8.590;2022-11-11T10:30:29;27.13;;;13.90;;
61250;SDS011;47126;47.508;8.590;2022-11-11T10:35:26;28.20;;;17.25;;
61250;SDS011;47126;47.508;8.590;2022-11-11T10:37:55;25.63;;;13.70;;
61250;SDS011;47126;47.508;8.590;2022-11-11T10:40:33;28.52;;;15.57;;
61250;SDS011;47126;47.508;8.590;2022-11-11T10:43:00;26.10;;;15.15;;
61250;SDS011;47126;47.508;8.590;2022-11-11T10:45:28;28.02;;;15.55;;
61250;SDS011;47126;47.508;8.590;2022-11-11T10:48:00;27.10;;;14.63;;
61250;SDS011;47126;47.508;8.590;2022-11-11T10:50:31;27.02;;;14.98;;
61250;SDS011;47126;47.508;8.590;2022-11-11T10:53:16;30.17;;;16.10;;
61250;SDS011;47126;47.508;8.590;2022-11-11T11:00:34;29.48;;;15.07;;
61250;SDS011;47126;47.508;8.590;2022-11-11T11:03:13;23.88;;;13.63;;
61250;SDS011;47126;47.508;8.590;2022-11-11T11:05:41;25.17;;;14.65;;
61250;SDS011;47126;47.508;8.590;2022-11-11T11:08:19;24.77;;;14.38;;
61250;SDS011;47126;47.508;8.590;2022-11-11T11:10:47;25.80;;;15.63;;
61250;SDS011;47126;47.508;8.590;2022-11-11T11:13:27;25.83;;;14.77;;
61250;SDS011;47126;47.508;8.590;2022-11-11T11:15:59;25.80;;;15.60;;
61250;SDS011;47126;47.508;8.590;2022-11-11T11:18:28;25.10;;;14.52;;
61250;SDS011;47126;47.508;8.590;2022-11-11T11:20:58;28.55;;;15.20;;
61250;SDS011;47126;47.508;8.590;2022-11-11T11:25:59;30.85;;;17.85;;
61250;SDS011;47126;47.508;8.590;2022-11-11T11:28:26;83.88;;;55.17;;
61250;SDS011;47126;47.508;8.590;2022-11-11T11:31:00;38.53;;;24.98;;
61250;SDS011;47126;47.508;8.590;2022-11-11T11:33:26;30.40;;;19.20;;
61250;SDS011;47126;47.508;8.590;2022-11-11T11:35:52;94.85;;;58.63;;
61250;SDS011;47126;47.508;8.590;2022-11-11T11:38:18;29.23;;;15.30;;
61250;SDS011;47126;47.508;8.590;2022-11-11T11:43:22;26.55;;;15.45;;
61250;SDS011;47126;47.508;8.590;2022-11-11T11:45:53;23.27;;;14.88;;
61250;SDS011;47126;47.508;8.590;2022-11-11T11:48:23;24.10;;;14.90;;
61250;SDS011;47126;47.508;8.590;2022-11-11T11:50:52;28.45;;;14.95;;
61250;SDS011;47126;47.508;8.590;2022-11-11T11:53:27;22.85;;;14.70;;
61250;SDS011;47126;47.508;8.590;2022-11-11T12:01:16;24.70;;;14.43;;
61250;SDS011;47126;47.508;8.590;2022-11-11T12:06:38;20.92;;;14.32;;
61250;SDS011;47126;47.508;8.590;2022-11-11T12:09:12;26.17;;;14.98;;
61250;SDS011;47126;47.508;8.590;2022-11-11T12:11:56;23.17;;;14.00;;
61250;SDS011;47126;47.508;8.590;2022-11-11T12:17:23;26.80;;;16.13;;
61250;SDS011;47126;47.508;8.590;2022-11-11T12:22:37;24.67;;;15.27;;
61250;SDS011;47126;47.508;8.590;2022-11-11T12:30:20;29.52;;;16.27;;
61250;SDS011;47126;47.508;8.590;2022-11-11T12:43:25;23.70;;;14.60;;
61250;SDS011;47126;47.508;8.590;2022-11-11T12:46:03;22.13;;;13.95;;
61250;SDS011;47126;47.508;8.590;2022-11-11T12:48:37;24.15;;;14.80;;
61250;SDS011;47126;47.508;8.590;2022-11-11T12:53:37;24.48;;;14.85;;
61250;SDS011;47126;47.508;8.590;2022-11-11T12:58:38;25.50;;;14.52;;
61250;SDS011;47126;47.508;8.590;2022-11-11T13:03:50;22.88;;;14.45;;
61250;SDS011;47126;47.508;8.590;2022-11-11T13:17:01;23.40;;;14.02;;
61250;SDS011;47126;47.508;8.590;2022-11-11T13:19:35;22.65;;;14.52;;
61250;SDS011;47126;47.508;8.590;2022-11-11T13:22:12;25.52;;;15.63;;
61250;SDS011;47126;47.508;8.590;2022-11-11T13:24:39;25.20;;;15.38;;
61250;SDS011;47126;47.508;8.590;2022-11-11T13:27:11;28.80;;;16.75;;
61250;SDS011;47126;47.508;8.590;2022-11-11T13:29:44;28.88;;;15.65;;
61250;SDS011;47126;47.508;8.590;2022-11-11T13:32:14;74.55;;;47.10;;
61250;SDS011;47126;47.508;8.590;2022-11-11T13:34:42;256.52;;;189.82;;
61250;SDS011;47126;47.508;8.590;2022-11-11T13:37:15;162.50;;;87.25;;
61250;SDS011;47126;47.508;8.590;2022-11-11T13:39:44;76.75;;;46.95;;
61250;SDS011;47126;47.508;8.590;2022-11-11T13:42:12;28.75;;;16.42;;
61250;SDS011;47126;47.508;8.590;2022-11-11T13:44:46;28.83;;;16.23;;
61250;SDS011;47126;47.508;8.590;2022-11-11T13:47:17;25.10;;;16.33;;
61250;SDS011;47126;47.508;8.590;2022-11-11T13:49:52;29.70;;;16.77;;
61250;SDS011;47126;47.508;8.590;2022-11-11T13:52:35;26.10;;;16.08;;
61250;SDS011;47126;47.508;8.590;2022-11-11T13:55:03;27.75;;;16.23;;
61250;SDS011;47126;47.508;8.590;2022-11-11T13:57:31;26.65;;;16.13;;
61250;SDS011;47126;47.508;8.590;2022-11-11T14:02:30;26.55;;;16.73;;
61250;SDS011;47126;47.508;8.590;2022-11-11T14:12:53;28.67;;;15.77;;
61250;SDS011;47126;47.508;8.590;2022-11-11T14:17:58;27.98;;;15.95;;
61250;SDS011;47126;47.508;8.590;2022-11-11T14:20:32;27.25;;;14.77;;
61250;SDS011;47126;47.508;8.590;2022-11-11T14:25:48;25.35;;;14.55;;
61250;SDS011;47126;47.508;8.590;2022-11-11T14:28:21;23.17;;;14.10;;
61250;SDS011;47126;47.508;8.590;2022-11-11T14:30:48;27.27;;;15.55;;
61250;SDS011;47126;47.508;8.590;2022-11-11T14:33:17;26.73;;;14.98;;
61250;SDS011;47126;47.508;8.590;2022-11-11T14:35:53;29.60;;;15.30;;
61250;SDS011;47126;47.508;8.590;2022-11-11T14:43:51;25.17;;;15.07;;
61250;SDS011;47126;47.508;8.590;2022-11-11T14:46:17;27.65;;;15.00;;
61250;SDS011;47126;47.508;8.590;2022-11-11T14:54:03;29.13;;;15.88;;
61250;SDS011;47126;47.508;8.590;2022-11-11T14:56:30;25.05;;;14.20;;
61250;SDS011;47126;47.508;8.590;2022-11-11T14:58:58;27.98;;;15.30;;
61250;SDS011;47126;47.508;8.590;2022-11-11T15:01:28;28.10;;;15.10;;
61250;SDS011;47126;47.508;8.590;2022-11-11T15:03:55;25.60;;;14.48;;
61250;SDS011;47126;47.508;8.590;2022-11-11T15:06:32;25.80;;;15.00;;
61250;SDS011;47126;47.508;8.590;2022-11-11T15:17:03;31.58;;;15.98;;
61250;SDS011;47126;47.508;8.590;2022-11-11T15:25:10;35.08;;;17.98;;
61250;SDS011;47126;47.508;8.590;2022-11-11T15:27:45;30.60;;;16.00;;
61250;SDS011;47126;47.508;8.590;2022-11-11T15:30:14;28.83;;;16.02;;
61250;SDS011;47126;47.508;8.590;2022-11-11T15:35:39;31.13;;;17.13;;
61250;SDS011;47126;47.508;8.590;2022-11-11T15:38:10;33.22;;;16.90;;
61250;SDS011;47126;47.508;8.590;2022-11-11T15:40:44;31.20;;;17.65;;
61250;SDS011;47126;47.508;8.590;2022-11-11T15:43:16;37.78;;;18.15;;
61250;SDS011;47126;47.508;8.590;2022-11-11T15:45:43;34.30;;;18.58;;
61250;SDS011;47126;47.508;8.590;2022-11-11T15:48:16;28.90;;;16.35;;
61250;SDS011;47126;47.508;8.590;2022-11-11T15:50:42;35.20;;;17.67;;
61250;SDS011;47126;47.508;8.590;2022-11-11T15:53:10;34.63;;;17.60;;
61250;SDS011;47126;47.508;8.590;2022-11-11T15:55:36;90.78;;;42.85;;
61250;SDS011;47126;47.508;8.590;2022-11-11T15:58:08;39.30;;;21.27;;
61250;SDS011;47126;47.508;8.590;2022-11-11T16:00:34;36.85;;;18.73;;
61250;SDS011;47126;47.508;8.590;2022-11-11T16:03:01;34.05;;;16.80;;
61250;SDS011;47126;47.508;8.590;2022-11-11T16:05:27;35.25;;;18.35;;
61250;SDS011;47126;47.508;8.590;2022-11-11T16:08:02;34.85;;;17.92;;
61250;SDS011;47126;47.508;8.590;2022-11-11T16:10:33;32.30;;;16.58;;
61250;SDS011;47126;47.508;8.590;2022-11-11T16:17:52;34.17;;;18.00;;
61250;SDS011;47126;47.508;8.590;2022-11-11T16:20:20;34.90;;;18.77;;
61250;SDS011;47126;47.508;8.590;2022-11-11T16:22:47;33.33;;;17.45;;
61250;SDS011;47126;47.508;8.590;2022-11-11T16:25:15;33.17;;;18.95;;
61250;SDS011;47126;47.508;8.590;2022-11-11T16:27:42;35.60;;;19.38;;
61250;SDS011;47126;47.508;8.590;2022-11-11T16:30:41;34.97;;;18.15;;
61250;SDS011;47126;47.508;8.590;2022-11-11T16:33:00;35.08;;;18.40;;
61250;SDS011;47126;47.508;8.590;2022-11-11T16:35:28;35.88;;;18.30;;
61250;SDS011;47126;47.508;8.590;2022-11-11T16:37:55;36.78;;;18.27;;
61250;SDS011;47126;47.508;8.590;2022-11-11T16:43:14;34.65;;;18.77;;
61250;SDS011;47126;47.508;8.590;2022-11-11T16:45:57;35.58;;;18.88;;